Time;durP1;ratioP1;P1;durP2;ratioP2;P2;SDS_P1;SDS_P2;PMS_P1;PMS_P2;Temp;Humidity;BMP_temperature;BMP_pressure;BME280_temperature;BME280_humidity;BME280_pressure;Samples;Min_cycle;Max_cycle;Signal;HPM_P1;HPM_P2
2023/12/22 00:01:30;;;;;;;8.18;5.25;;;;;;;;;;6082211;29;20055;-88
2023/12/22 00:04:35;;;;;;;9.10;4.75;;;;;;;;;;6080212;29;20049;-89
2023/12/22 00:07:50;;;;;;;8.02;4.00;;;;;;;;;;6074698;29;20147;-89
2023/12/22 00:11:19;;;;;;;7.28;3.70;;;;;;;;;;6079926;29;20076;-89
2023/12/22 00:18:01;;;;;;;5.18;3.15;;;;;;;;;;6062517;29;20049;-89
2023/12/22 00:21:23;;;;;;;9.88;5.50;;;;;;;;;;6080880;29;20056;-89
2023/12/22 00:24:31;;;;;;;18.70;9.30;;;;;;;;;;6077552;29;20112;-85
2023/12/22 00:27:39;;;;;;;6.72;4.00;;;;;;;;;;6083064;29;20056;-89
2023/12/22 00:30:47;;;;;;;6.47;3.90;;;;;;;;;;6066797;29;20105;-88
2023/12/22 00:33:53;;;;;;;7.38;4.05;;;;;;;;;;6091092;29;20057;-89
2023/12/22 00:36:59;;;;;;;7.82;3.85;;;;;;;;;;6061199;29;20057;-84
2023/12/22 00:40:09;;;;;;;6.57;3.63;;;;;;;;;;6075062;29;20112;-85
2023/12/22 00:43:18;;;;;;;6.60;4.18;;;;;;;;;;6076073;29;20135;-84
2023/12/22 00:46:27;;;;;;;5.65;3.40;;;;;;;;;;6082373;29;20357;-85
2023/12/22 00:49:34;;;;;;;5.88;3.65;;;;;;;;;;6091228;29;20051;-89
2023/12/22 00:52:51;;;;;;;9.05;4.25;;;;;;;;;;6084172;29;20064;-87
2023/12/22 00:56:03;;;;;;;6.32;3.90;;;;;;;;;;6099659;29;20061;-88
2023/12/22 00:59:05;;;;;;;7.25;4.05;;;;;;;;;;6089800;29;20052;-80
2023/12/22 01:02:13;;;;;;;6.88;4.28;;;;;;;;;;6088035;29;20387;-79
2023/12/22 01:05:17;;;;;;;5.95;4.25;;;;;;;;;;6081173;29;20360;-79
2023/12/22 01:08:20;;;;;;;6.00;4.10;;;;;;;;;;6082353;29;20045;-79
2023/12/22 01:11:22;;;;;;;5.65;3.97;;;;;;;;;;6085067;29;20067;-79
2023/12/22 01:14:26;;;;;;;8.40;4.82;;;;;;;;;;6085923;29;20052;-80
2023/12/22 01:17:31;;;;;;;11.27;5.00;;;;;;;;;;6079095;29;20059;-80
2023/12/22 01:20:53;;;;;;;7.50;4.47;;;;;;;;;;6090465;29;20053;-80
2023/12/22 01:24:01;;;;;;;8.35;4.45;;;;;;;;;;6081472;29;20115;-80
2023/12/22 01:27:03;;;;;;;9.45;4.70;;;;;;;;;;6085180;29;20059;-80
2023/12/22 01:30:07;;;;;;;8.98;5.20;;;;;;;;;;6091012;29;20071;-81
2023/12/22 01:33:09;;;;;;;8.43;5.10;;;;;;;;;;6073085;29;20052;-81
2023/12/22 01:36:15;;;;;;;8.63;5.55;;;;;;;;;;6083884;29;20053;-80
2023/12/22 01:39:22;;;;;;;8.65;5.30;;;;;;;;;;6087714;29;20064;-79
2023/12/22 01:42:28;;;;;;;10.07;5.82;;;;;;;;;;6077780;29;21347;-80
2023/12/22 01:45:30;;;;;;;9.02;5.63;;;;;;;;;;6086047;29;20048;-79
2023/12/22 01:48:42;;;;;;;10.98;6.18;;;;;;;;;;6085134;29;20344;-79
2023/12/22 01:51:45;;;;;;;9.60;6.18;;;;;;;;;;6084162;29;20257;-79
2023/12/22 01:54:54;;;;;;;10.27;5.95;;;;;;;;;;6077695;29;20117;-79
2023/12/22 01:58:04;;;;;;;10.93;6.97;;;;;;;;;;6080169;29;20459;-79
2023/12/22 02:01:18;;;;;;;10.75;6.43;;;;;;;;;;6070614;29;20052;-79
2023/12/22 02:04:20;;;;;;;10.52;7.07;;;;;;;;;;6080394;29;20048;-79
2023/12/22 02:07:24;;;;;;;12.30;6.88;;;;;;;;;;6083184;29;20156;-81
2023/12/22 02:10:28;;;;;;;9.20;6.07;;;;;;;;;;6084931;29;20059;-80
2023/12/22 02:13:34;;;;;;;;;;;;;;;;;;6087166;29;20230;-81
2023/12/22 02:16:48;;;;;;;11.45;6.70;;;;;;;;;;6086138;29;20028;-82
2023/12/22 02:19:52;;;;;;;10.50;6.70;;;;;;;;;;6085218;29;20062;-81
2023/12/22 02:22:58;;;;;;;10.98;6.65;;;;;;;;;;6082634;29;20045;-81
2023/12/22 02:26:10;;;;;;;9.20;6.10;;;;;;;;;;6073382;29;20058;-82
2023/12/22 02:29:38;;;;;;;11.00;6.78;;;;;;;;;;6064797;29;20504;-82
2023/12/22 02:32:45;;;;;;;11.23;6.47;;;;;;;;;;6071945;29;20060;-81
2023/12/22 02:35:59;;;;;;;11.40;6.40;;;;;;;;;;6087677;29;20052;-82
2023/12/22 02:39:03;;;;;;;11.82;6.70;;;;;;;;;;6072619;29;20056;-83
2023/12/22 02:42:06;;;;;;;11.88;6.95;;;;;;;;;;6083057;29;20060;-82
2023/12/22 02:45:20;;;;;;;9.80;6.28;;;;;;;;;;6085680;29;20068;-83
2023/12/22 02:48:32;;;;;;;12.30;6.45;;;;;;;;;;6079655;29;20048;-82
2023/12/22 02:51:47;;;;;;;12.15;7.25;;;;;;;;;;6080758;29;20241;-81
2023/12/22 02:54:50;;;;;;;;;;;;;;;;;;6078808;29;20048;-82
2023/12/22 02:57:55;;;;;;;13.40;7.38;;;;;;;;;;6079073;29;19986;-81
2023/12/22 03:00:59;;;;;;;13.38;7.15;;;;;;;;;;6084027;29;20250;-81
2023/12/22 03:04:00;;;;;;;12.80;7.00;;;;;;;;;;6082181;29;20130;-80
2023/12/22 03:07:02;;;;;;;11.60;6.97;;;;;;;;;;6082838;29;20056;-81
2023/12/22 03:10:07;;;;;;;9.95;6.72;;;;;;;;;;6082142;29;20076;-81
2023/12/22 03:13:08;;;;;;;11.30;6.68;;;;;;;;;;6086436;29;20071;-82
2023/12/22 03:16:10;;;;;;;10.75;6.53;;;;;;;;;;6080971;29;20060;-81
2023/12/22 03:19:17;;;;;;;9.07;6.22;;;;;;;;;;6071518;29;20079;-89
2023/12/22 03:22:29;;;;;;;11.15;6.43;;;;;;;;;;6084863;29;20059;-89
2023/12/22 03:25:41;;;;;;;10.38;6.15;;;;;;;;;;6069833;29;20081;-88
2023/12/22 03:29:02;;;;;;;9.13;5.93;;;;;;;;;;6079187;29;20044;-88
2023/12/22 03:32:07;;;;;;;7.95;5.38;;;;;;;;;;6082539;29;20100;-88
2023/12/22 03:35:15;;;;;;;11.93;5.55;;;;;;;;;;6072436;29;20424;-88
2023/12/22 03:38:41;;;;;;;10.05;5.40;;;;;;;;;;6079711;29;20124;-89
2023/12/22 03:42:05;;;;;;;11.00;5.50;;;;;;;;;;6086616;29;20052;-88
2023/12/22 03:49:45;;;;;;;8.73;5.03;;;;;;;;;;6072072;29;20063;-89
2023/12/22 03:52:55;;;;;;;11.57;5.70;;;;;;;;;;6062092;29;20476;-88
2023/12/22 03:55:59;;;;;;;10.38;5.70;;;;;;;;;;6069649;29;20052;-88
2023/12/22 03:59:03;;;;;;;11.90;5.63;;;;;;;;;;6083892;29;20121;-89
2023/12/22 04:02:12;;;;;;;8.50;5.53;;;;;;;;;;6067156;29;20044;-87
2023/12/22 04:05:17;;;;;;;8.80;5.22;;;;;;;;;;6085324;29;20048;-87
2023/12/22 04:08:32;;;;;;;9.25;5.40;;;;;;;;;;6084293;29;20242;-88
2023/12/22 04:15:15;;;;;;;10.75;5.95;;;;;;;;;;6082425;29;20107;-90
2023/12/22 04:18:31;;;;;;;9.05;5.85;;;;;;;;;;6058769;29;20068;-89
2023/12/22 04:28:52;;;;;;;9.70;5.10;;;;;;;;;;6068826;29;20112;-88
2023/12/22 04:32:30;;;;;;;9.57;4.25;;;;;;;;;;6060925;29;20141;-88
2023/12/22 04:39:12;;;;;;;6.82;3.78;;;;;;;;;;6072764;29;20108;-88
2023/12/22 04:42:52;;;;;;;7.32;3.80;;;;;;;;;;6082597;29;20052;-89
2023/12/22 04:52:56;;;;;;;3.65;2.15;;;;;;;;;;6080242;29;20419;-88
2023/12/22 04:56:15;;;;;;;5.22;2.30;;;;;;;;;;6083873;29;20247;-88
2023/12/22 04:59:44;;;;;;;4.15;2.22;;;;;;;;;;6056516;29;20076;-88
2023/12/22 05:03:03;;;;;;;3.25;1.70;;;;;;;;;;6077712;29;20249;-87
2023/12/22 05:06:14;;;;;;;2.88;1.55;;;;;;;;;;6085715;29;20072;-88
2023/12/22 05:12:35;;;;;;;3.78;1.85;;;;;;;;;;6009593;29;20054;-87
2023/12/22 05:16:01;;;;;;;6.68;1.73;;;;;;;;;;6018756;29;20122;-88
2023/12/22 05:19:26;;;;;;;2.40;1.48;;;;;;;;;;5980346;29;20291;-88
2023/12/22 05:22:47;;;;;;;2.83;1.42;;;;;;;;;;6010044;29;20050;-89
2023/12/22 05:26:00;;;;;;;2.83;1.63;;;;;;;;;;6023789;29;20125;-89
2023/12/22 05:29:05;;;;;;;3.22;1.77;;;;;;;;;;6025780;29;20053;-89
2023/12/22 05:32:38;;;;;;;6.80;1.77;;;;;;;;;;6009858;29;20102;-88
2023/12/22 05:35:44;;;;;;;2.83;1.50;;;;;;;;;;6007867;29;20298;-90
2023/12/22 05:38:50;;;;;;;5.32;1.60;;;;;;;;;;6020330;29;20309;-79
2023/12/22 05:41:52;;;;;;;3.53;1.48;;;;;;;;;;6024540;29;20058;-79
2023/12/22 05:45:00;;;;;;;6.35;1.50;;;;;;;;;;6087519;29;20047;-79
2023/12/22 05:48:02;;;;;;;5.72;1.38;;;;;;;;;;6083444;29;20059;-79
2023/12/22 05:51:07;;;;;;;4.60;1.10;;;;;;;;;;6080693;29;20063;-79
2023/12/22 05:54:16;;;;;;;4.35;1.30;;;;;;;;;;6076794;29;20052;-81
2023/12/22 05:57:21;;;;;;;2.67;1.08;;;;;;;;;;6076674;29;20060;-79
2023/12/22 06:00:23;;;;;;;4.47;1.10;;;;;;;;;;6082961;29;20049;-79
2023/12/22 06:03:30;;;;;;;2.10;1.05;;;;;;;;;;6081037;29;20060;-80
2023/12/22 06:06:35;;;;;;;3.17;1.08;;;;;;;;;;6079741;29;20377;-80
2023/12/22 06:09:41;;;;;;;2.08;1.20;;;;;;;;;;6081448;29;20553;-80
2023/12/22 06:12:57;;;;;;;4.47;1.63;;;;;;;;;;6080514;29;20337;-81
2023/12/22 06:19:21;;;;;;;4.35;1.92;;;;;;;;;;6085143;29;20308;-80
2023/12/22 06:22:24;;;;;;;4.47;2.17;;;;;;;;;;6067216;29;20301;-79
2023/12/22 06:25:27;;;;;;;5.70;2.17;;;;;;;;;;6082958;29;20044;-80
2023/12/22 06:28:39;;;;;;;4.20;2.03;;;;;;;;;;6085059;29;20159;-81
2023/12/22 06:31:44;;;;;;;3.58;1.88;;;;;;;;;;6086115;29;20063;-79
2023/12/22 06:34:46;;;;;;;3.22;2.10;;;;;;;;;;6082288;29;20344;-80
2023/12/22 06:37:55;;;;;;;5.70;1.90;;;;;;;;;;6080556;29;20057;-80
2023/12/22 06:41:01;;;;;;;9.77;4.47;;;;;;;;;;6085270;29;20348;-81
2023/12/22 06:44:06;;;;;;;6.15;2.30;;;;;;;;;;6080392;29;20060;-80
2023/12/22 06:47:08;;;;;;;5.57;1.73;;;;;;;;;;6078883;29;20078;-85
2023/12/22 06:50:22;;;;;;;3.97;2.13;;;;;;;;;;6078112;29;20350;-84
2023/12/22 06:53:30;;;;;;;7.87;2.80;;;;;;;;;;6078698;29;20127;-85
2023/12/22 06:56:37;;;;;;;5.93;1.92;;;;;;;;;;6078893;29;20082;-86
2023/12/22 06:59:42;;;;;;;2.60;1.45;;;;;;;;;;6086196;29;20065;-83
2023/12/22 07:02:47;;;;;;;1.98;0.82;;;;;;;;;;6085511;29;20083;-84
2023/12/22 07:05:50;;;;;;;3.20;1.00;;;;;;;;;;6077451;29;20071;-85
2023/12/22 07:09:13;;;;;;;4.30;0.80;;;;;;;;;;6087722;29;20059;-85
2023/12/22 07:12:17;;;;;;;2.58;0.98;;;;;;;;;;6084596;29;20052;-85
2023/12/22 07:15:19;;;;;;;1.02;0.68;;;;;;;;;;6082527;29;20048;-86
2023/12/22 07:18:21;;;;;;;1.80;0.68;;;;;;;;;;6083089;29;20194;-85
2023/12/22 07:21:23;;;;;;;2.10;0.70;;;;;;;;;;6079440;29;20044;-86
2023/12/22 07:24:25;;;;;;;1.77;0.73;;;;;;;;;;6084090;29;20060;-85
2023/12/22 07:27:28;;;;;;;8.73;0.90;;;;;;;;;;6087160;29;20041;-85
2023/12/22 07:30:30;;;;;;;2.00;0.70;;;;;;;;;;6072148;29;20336;-85
2023/12/22 07:33:51;;;;;;;1.65;0.50;;;;;;;;;;6081632;29;20111;-86
2023/12/22 07:36:55;;;;;;;1.05;0.50;;;;;;;;;;6082728;29;20337;-85
2023/12/22 07:40:00;;;;;;;;;;;;;;;;;;6080953;29;20044;-85
2023/12/22 07:43:03;;;;;;;;;;;;;;;;;;6077939;29;20211;-86
2023/12/22 07:46:09;;;;;;;5.00;0.50;;;;;;;;;;6079247;29;19994;-85
2023/12/22 07:49:20;;;;;;;3.05;0.50;;;;;;;;;;6077656;29;20079;-85
2023/12/22 07:52:31;;;;;;;2.35;0.60;;;;;;;;;;6081006;29;20049;-85
2023/12/22 07:55:33;;;;;;;1.92;0.45;;;;;;;;;;6078944;29;20067;-86
2023/12/22 08:01:52;;;;;;;2.15;0.55;;;;;;;;;;6079474;29;20104;-80
2023/12/22 08:05:09;;;;;;;5.57;0.47;;;;;;;;;;6080354;29;20060;-81
2023/12/22 08:08:14;;;;;;;1.15;0.40;;;;;;;;;;6081112;29;20058;-80
2023/12/22 08:11:15;;;;;;;2.28;0.40;;;;;;;;;;6077299;29;20309;-80
2023/12/22 08:14:19;;;;;;;0.88;0.20;;;;;;;;;;6086998;29;20060;-81
2023/12/22 08:17:24;;;;;;;0.57;0.20;;;;;;;;;;6073449;29;20053;-80
2023/12/22 08:20:26;;;;;;;2.35;0.50;;;;;;;;;;6081036;29;20064;-80
2023/12/22 08:23:28;;;;;;;0.85;0.20;;;;;;;;;;6082271;29;20053;-80
2023/12/22 08:26:34;;;;;;;2.22;0.73;;;;;;;;;;6083322;29;20060;-80
2023/12/22 08:29:37;;;;;;;0.88;0.57;;;;;;;;;;6081336;29;20256;-80
2023/12/22 08:32:39;;;;;;;3.95;0.30;;;;;;;;;;6078154;29;20057;-81
2023/12/22 08:35:42;;;;;;;0.88;0.28;;;;;;;;;;6078224;29;20059;-81
2023/12/22 08:38:46;;;;;;;0.70;0.25;;;;;;;;;;6084839;29;20097;-81
2023/12/22 08:41:53;;;;;;;1.13;0.30;;;;;;;;;;6078773;29;20067;-81
2023/12/22 08:44:56;;;;;;;2.53;0.40;;;;;;;;;;6095141;29;20052;-81
2023/12/22 08:47:58;;;;;;;1.23;0.50;;;;;;;;;;6085293;29;20063;-82
2023/12/22 08:51:00;;;;;;;3.33;0.30;;;;;;;;;;6085080;29;20067;-81
2023/12/22 08:54:02;;;;;;;4.93;0.50;;;;;;;;;;6087369;29;20060;-81
2023/12/22 08:57:04;;;;;;;2.25;0.30;;;;;;;;;;6086575;29;20382;-81
2023/12/22 09:00:09;;;;;;;2.70;0.50;;;;;;;;;;6076430;29;20052;-82
2023/12/22 09:03:10;;;;;;;6.75;0.40;;;;;;;;;;6083889;29;20052;-81
2023/12/22 09:06:14;;;;;;;5.45;0.55;;;;;;;;;;6085886;29;20056;-81
2023/12/22 09:09:16;;;;;;;;;;;;;;;;;;6090086;29;20423;-84
2023/12/22 09:12:20;;;;;;;0.45;0.20;;;;;;;;;;6082913;29;20230;-83
2023/12/22 09:15:23;;;;;;;0.93;0.28;;;;;;;;;;6084241;29;20100;-82
2023/12/22 09:18:25;;;;;;;0.50;0.10;;;;;;;;;;6086049;29;20491;-83
2023/12/22 09:21:26;;;;;;;0.80;0.30;;;;;;;;;;6082286;29;20072;-83
2023/12/22 09:24:28;;;;;;;2.88;0.55;;;;;;;;;;6083063;29;20055;-82
2023/12/22 09:27:30;;;;;;;4.10;0.30;;;;;;;;;;6083504;29;20057;-83
2023/12/22 09:30:34;;;;;;;0.82;0.13;;;;;;;;;;6087238;29;20116;-82
2023/12/22 09:33:35;;;;;;;1.10;0.20;;;;;;;;;;6084647;29;20086;-82
2023/12/22 09:36:37;;;;;;;0.63;0.30;;;;;;;;;;6082992;29;20261;-83
2023/12/22 09:39:39;;;;;;;1.77;0.30;;;;;;;;;;6083854;29;20244;-82
2023/12/22 09:42:43;;;;;;;1.30;0.30;;;;;;;;;;6084321;29;20061;-83
2023/12/22 09:45:47;;;;;;;1.40;0.45;;;;;;;;;;6084733;29;20060;-83
2023/12/22 09:48:49;;;;;;;;;;;;;;;;;;6084099;29;20056;-83
2023/12/22 09:51:52;;;;;;;1.33;0.50;;;;;;;;;;6084897;29;19919;-83
2023/12/22 09:54:55;;;;;;;1.60;0.38;;;;;;;;;;6080368;29;20348;-82
2023/12/22 09:57:58;;;;;;;0.85;0.30;;;;;;;;;;6082851;29;20052;-82
2023/12/22 10:01:02;;;;;;;0.30;0.13;;;;;;;;;;6083787;29;20059;-83
2023/12/22 10:04:05;;;;;;;1.02;0.47;;;;;;;;;;6087858;29;20048;-83
2023/12/22 10:07:08;;;;;;;2.97;0.60;;;;;;;;;;6080852;29;20052;-81
2023/12/22 10:10:10;;;;;;;7.40;0.70;;;;;;;;;;6084344;29;20083;-82
2023/12/22 10:13:12;;;;;;;1.00;0.50;;;;;;;;;;6080342;29;20067;-82
2023/12/22 10:16:15;;;;;;;2.38;0.60;;;;;;;;;;6081205;29;20054;-82
2023/12/22 10:19:18;;;;;;;2.90;1.20;;;;;;;;;;6088622;29;20357;-81
2023/12/22 10:22:23;;;;;;;2.80;0.43;;;;;;;;;;6085050;29;20059;-82
2023/12/22 10:25:30;;;;;;;1.90;0.50;;;;;;;;;;6081597;29;20251;-81
2023/12/22 10:28:32;;;;;;;2.58;0.40;;;;;;;;;;6082007;29;20126;-81
2023/12/22 10:31:41;;;;;;;1.85;0.60;;;;;;;;;;6085536;29;20053;-81
2023/12/22 10:34:43;;;;;;;3.38;0.57;;;;;;;;;;6086356;29;20068;-82
2023/12/22 10:37:46;;;;;;;1.98;0.77;;;;;;;;;;6083896;29;20140;-83
2023/12/22 10:40:48;;;;;;;0.70;0.35;;;;;;;;;;6081689;29;20103;-83
2023/12/22 10:43:52;;;;;;;1.15;0.60;;;;;;;;;;6083714;29;20260;-82
2023/12/22 10:46:57;;;;;;;5.55;0.52;;;;;;;;;;6078715;29;20057;-82
2023/12/22 10:50:04;;;;;;;1.17;0.35;;;;;;;;;;6087207;29;20053;-82
2023/12/22 10:53:07;;;;;;;2.10;0.40;;;;;;;;;;6080255;29;20044;-81
2023/12/22 10:56:09;;;;;;;2.47;0.40;;;;;;;;;;6082889;29;20068;-82
2023/12/22 10:59:11;;;;;;;0.77;0.30;;;;;;;;;;6111056;23;20067;-80
2023/12/22 11:02:20;;;;;;;1.92;0.40;;;;;;;;;;6099954;29;20396;-80
2023/12/22 11:05:23;;;;;;;0.55;0.30;;;;;;;;;;6102633;29;20060;-90
2023/12/22 11:08:27;;;;;;;0.80;0.30;;;;;;;;;;6100867;29;20064;-94
2023/12/22 11:11:34;;;;;;;0.95;0.40;;;;;;;;;;6103290;29;20489;-95
2023/12/22 11:14:36;;;;;;;1.90;0.30;;;;;;;;;;6069117;29;20062;-95
2023/12/22 11:17:43;;;;;;;0.80;0.32;;;;;;;;;;6080896;29;20313;-95
2023/12/22 11:20:47;;;;;;;2.85;0.45;;;;;;;;;;6103747;29;20486;-94
2023/12/22 11:23:51;;;;;;;2.30;0.20;;;;;;;;;;6086681;29;20107;-90
2023/12/22 11:26:57;;;;;;;0.28;0.20;;;;;;;;;;6103128;29;20055;-93
2023/12/22 11:29:59;;;;;;;1.42;0.30;;;;;;;;;;6104381;29;20497;-92
2023/12/22 11:33:04;;;;;;;2.33;0.40;;;;;;;;;;6089052;29;20063;-93
2023/12/22 11:36:06;;;;;;;5.35;0.65;;;;;;;;;;6104394;29;20060;-93
2023/12/22 11:39:09;;;;;;;1.10;0.60;;;;;;;;;;6102116;29;20386;-92
2023/12/22 11:42:16;;;;;;;1.52;0.40;;;;;;;;;;6090926;29;20068;-93
2023/12/22 11:45:19;;;;;;;2.33;0.40;;;;;;;;;;6099324;29;20053;-95
2023/12/22 11:48:22;;;;;;;2.63;0.30;;;;;;;;;;6103892;29;20060;-93
2023/12/22 11:51:27;;;;;;;0.70;0.20;;;;;;;;;;6092788;29;20076;-94
2023/12/22 11:54:48;;;;;;;0.95;0.40;;;;;;;;;;6086027;29;20068;-93
2023/12/22 11:57:50;;;;;;;0.63;0.30;;;;;;;;;;6085714;29;20231;-93
2023/12/22 12:00:59;;;;;;;1.45;0.32;;;;;;;;;;6101737;29;20127;-92
2023/12/22 12:04:05;;;;;;;0.98;0.40;;;;;;;;;;6088585;29;20052;-94
2023/12/22 12:07:38;;;;;;;1.20;0.35;;;;;;;;;;6100035;29;20055;-91
2023/12/22 12:10:55;;;;;;;1.95;0.32;;;;;;;;;;6101930;29;20099;-93
2023/12/22 12:14:11;;;;;;;1.13;0.20;;;;;;;;;;6087198;29;20099;-81
2023/12/22 12:17:18;;;;;;;0.50;0.20;;;;;;;;;;6066504;29;20084;-82
2023/12/22 12:20:24;;;;;;;1.17;0.30;;;;;;;;;;6063728;29;20064;-82
2023/12/22 12:23:29;;;;;;;1.65;0.30;;;;;;;;;;6070419;29;20064;-81
2023/12/22 12:26:35;;;;;;;0.75;0.32;;;;;;;;;;6078356;29;20074;-83
2023/12/22 12:29:37;;;;;;;2.17;0.20;;;;;;;;;;6087455;29;20059;-82
2023/12/22 12:32:39;;;;;;;6.82;0.32;;;;;;;;;;6086078;29;20274;-82
2023/12/22 12:35:44;;;;;;;4.00;0.30;;;;;;;;;;6091526;29;20075;-80
2023/12/22 12:38:53;;;;;;;0.82;0.40;;;;;;;;;;6099949;29;20342;-81
2023/12/22 12:41:57;;;;;;;3.03;0.40;;;;;;;;;;6076704;29;20257;-83
2023/12/22 12:44:59;;;;;;;;;;;;;;;;;;6082345;29;20405;-81
2023/12/22 12:48:02;;;;;;;1.98;0.20;;;;;;;;;;6103549;29;19927;-76
2023/12/22 12:51:09;;;;;;;2.38;0.57;;;;;;;;;;6091257;29;20044;-83
2023/12/22 12:54:12;;;;;;;1.70;0.50;;;;;;;;;;6081309;29;20071;-82
2023/12/22 12:57:18;;;;;;;1.75;0.30;;;;;;;;;;6101419;29;20059;-82
2023/12/22 13:00:25;;;;;;;2.78;0.40;;;;;;;;;;6104334;29;20094;-81
2023/12/22 13:03:27;;;;;;;0.95;0.40;;;;;;;;;;6098928;29;20056;-82
2023/12/22 13:06:31;;;;;;;2.05;0.47;;;;;;;;;;6103053;29;20052;-83
2023/12/22 13:09:34;;;;;;;0.40;0.30;;;;;;;;;;6104237;29;20060;-82
2023/12/22 13:12:36;;;;;;;0.60;0.30;;;;;;;;;;6087364;29;20071;-83
2023/12/22 13:15:41;;;;;;;2.08;0.90;;;;;;;;;;6088105;29;20063;-83
2023/12/22 13:18:43;;;;;;;1.45;0.30;;;;;;;;;;6072860;29;20047;-81
2023/12/22 13:21:47;;;;;;;2.10;0.40;;;;;;;;;;6100676;29;20104;-81
2023/12/22 13:24:56;;;;;;;2.40;0.40;;;;;;;;;;6087944;29;20248;-81
2023/12/22 13:27:58;;;;;;;1.23;0.60;;;;;;;;;;6102913;29;20075;-81
2023/12/22 13:31:00;;;;;;;0.98;0.50;;;;;;;;;;6083311;29;20059;-80
2023/12/22 13:34:02;;;;;;;0.73;0.40;;;;;;;;;;6100449;29;20056;-82
2023/12/22 13:37:07;;;;;;;2.28;0.40;;;;;;;;;;6100632;29;20063;-82
2023/12/22 13:40:10;;;;;;;1.52;0.40;;;;;;;;;;6103506;29;20060;-82
2023/12/22 13:43:13;;;;;;;1.40;0.30;;;;;;;;;;6082459;29;20064;-81
2023/12/22 13:46:15;;;;;;;1.50;0.35;;;;;;;;;;6102097;29;20053;-82
2023/12/22 13:49:17;;;;;;;1.20;0.50;;;;;;;;;;6102020;29;20357;-84
2023/12/22 13:52:32;;;;;;;3.10;0.50;;;;;;;;;;6085952;29;20072;-82
2023/12/22 13:55:37;;;;;;;0.77;0.30;;;;;;;;;;6099542;29;20056;-82
2023/12/22 13:58:45;;;;;;;3.38;0.52;;;;;;;;;;6081432;29;20056;-83
2023/12/22 14:01:48;;;;;;;1.08;0.50;;;;;;;;;;6103783;29;20378;-82
2023/12/22 14:04:51;;;;;;;0.80;0.40;;;;;;;;;;6100190;29;20056;-82
2023/12/22 14:07:54;;;;;;;2.45;0.50;;;;;;;;;;6102270;29;20062;-82
2023/12/22 14:10:56;;;;;;;1.08;0.60;;;;;;;;;;6101869;29;20063;-82
2023/12/22 14:13:58;;;;;;;0.73;0.43;;;;;;;;;;6104871;29;20059;-82
2023/12/22 14:17:01;;;;;;;1.10;0.35;;;;;;;;;;6100747;29;20060;-82
2023/12/22 14:20:04;;;;;;;3.13;0.60;;;;;;;;;;6101733;29;20062;-81
2023/12/22 14:23:11;;;;;;;2.50;0.85;;;;;;;;;;6104303;29;20071;-81
2023/12/22 14:26:13;;;;;;;0.98;0.30;;;;;;;;;;6103176;29;20071;-81
2023/12/22 14:29:15;;;;;;;5.68;0.73;;;;;;;;;;6100013;29;20378;-81
2023/12/22 14:32:19;;;;;;;0.55;0.30;;;;;;;;;;6098137;29;20236;-82
2023/12/22 14:35:21;;;;;;;;;;;;;;;;;;6103901;29;20059;-93
2023/12/22 14:38:24;;;;;;;2.88;0.38;;;;;;;;;;6104856;29;19927;-90
2023/12/22 14:41:27;;;;;;;1.55;0.50;;;;;;;;;;6092270;29;20059;-92
2023/12/22 14:44:29;;;;;;;1.83;0.68;;;;;;;;;;6087363;29;20056;-90
2023/12/22 14:47:31;;;;;;;4.18;0.75;;;;;;;;;;6083483;29;20174;-91
2023/12/22 14:50:33;;;;;;;2.03;0.40;;;;;;;;;;6100175;29;20067;-92
2023/12/22 14:53:37;;;;;;;0.90;0.35;;;;;;;;;;6089833;29;20044;-92
2023/12/22 14:56:40;;;;;;;5.03;0.65;;;;;;;;;;6086878;29;20060;-91
2023/12/22 14:59:42;;;;;;;2.50;0.63;;;;;;;;;;6099047;29;20120;-91
2023/12/22 15:02:45;;;;;;;1.42;0.43;;;;;;;;;;6074935;29;20065;-94
2023/12/22 15:05:47;;;;;;;1.92;0.25;;;;;;;;;;6101875;29;20056;-90
2023/12/22 15:08:51;;;;;;;7.43;0.90;;;;;;;;;;6082642;29;20055;-91
2023/12/22 15:11:55;;;;;;;1.98;0.60;;;;;;;;;;6089889;29;20056;-92
2023/12/22 15:14:57;;;;;;;0.93;0.47;;;;;;;;;;6103093;29;20511;-94
2023/12/22 15:17:59;;;;;;;4.05;0.70;;;;;;;;;;6082007;29;20052;-94
2023/12/22 15:21:03;;;;;;;2.67;0.50;;;;;;;;;;6088387;29;20059;-96
2023/12/22 15:24:09;;;;;;;4.00;0.60;;;;;;;;;;6112630;29;20058;-92
2023/12/22 15:27:12;;;;;;;3.65;1.20;;;;;;;;;;6109371;29;20044;-94
2023/12/22 15:30:14;;;;;;;;;;;;;;;;;;6090754;29;20051;-96
2023/12/22 15:33:17;;;;;;;1.50;0.70;;;;;;;;;;6084204;29;20022;-93
2023/12/22 15:36:19;;;;;;;1.67;0.75;;;;;;;;;;6092269;29;20061;-96
2023/12/22 15:39:24;;;;;;;4.07;0.70;;;;;;;;;;6104456;29;20059;-95
2023/12/22 15:42:27;;;;;;;4.22;1.17;;;;;;;;;;6101672;29;20296;-93
2023/12/22 15:45:29;;;;;;;5.28;0.90;;;;;;;;;;6102527;29;20250;-96
2023/12/22 15:48:32;;;;;;;3.60;0.90;;;;;;;;;;6087672;29;20060;-96
2023/12/22 15:51:34;;;;;;;2.42;0.70;;;;;;;;;;6106729;29;20109;-95
2023/12/22 15:54:51;;;;;;;4.57;1.23;;;;;;;;;;6089102;29;20059;-80
2023/12/22 15:57:53;;;;;;;3.78;1.00;;;;;;;;;;6098081;29;20172;-81
2023/12/22 16:00:55;;;;;;;3.15;1.10;;;;;;;;;;6095617;29;20060;-79
2023/12/22 16:03:57;;;;;;;2.10;0.90;;;;;;;;;;6085413;29;20436;-80
2023/12/22 16:07:00;;;;;;;2.95;1.30;;;;;;;;;;6064775;29;20052;-83
2023/12/22 16:10:04;;;;;;;4.65;1.48;;;;;;;;;;6057720;29;20047;-82
2023/12/22 16:13:06;;;;;;;4.50;1.40;;;;;;;;;;6096916;29;20048;-81
2023/12/22 16:16:14;;;;;;;3.17;0.98;;;;;;;;;;6080983;29;20056;-80
2023/12/22 16:19:16;;;;;;;5.00;1.02;;;;;;;;;;6094197;29;20123;-81
2023/12/22 16:22:17;;;;;;;4.68;1.00;;;;;;;;;;6098781;29;20134;-78
2023/12/22 16:25:21;;;;;;;2.90;1.00;;;;;;;;;;6097766;29;20068;-80
2023/12/22 16:28:23;;;;;;;;;;;;;;;;;;6082799;29;20370;-80
2023/12/22 16:31:25;;;;;;;2.00;0.80;;;;;;;;;;6095884;29;20097;-79
2023/12/22 16:34:27;;;;;;;6.75;1.55;;;;;;;;;;6083903;29;20362;-79
2023/12/22 16:37:30;;;;;;;5.80;1.70;;;;;;;;;;6082949;29;20086;-80
2023/12/22 16:40:34;;;;;;;5.53;1.35;;;;;;;;;;6096579;29;20066;-79
2023/12/22 16:43:36;;;;;;;5.35;1.63;;;;;;;;;;6100963;29;20060;-80
2023/12/22 16:46:40;;;;;;;3.80;0.95;;;;;;;;;;6082041;29;20044;-79
2023/12/22 16:49:45;;;;;;;7.97;1.33;;;;;;;;;;6099342;29;20109;-80
2023/12/22 16:52:48;;;;;;;5.88;1.92;;;;;;;;;;6099225;29;20148;-80
2023/12/22 16:55:51;;;;;;;4.70;1.67;;;;;;;;;;6078791;29;20052;-80
2023/12/22 16:58:53;;;;;;;;;;;;;;;;;;6099760;29;20071;-80
2023/12/22 17:01:55;;;;;;;4.75;1.88;;;;;;;;;;6087925;29;19962;-81
2023/12/22 17:04:57;;;;;;;6.68;1.55;;;;;;;;;;6095738;28;20342;-80
2023/12/22 17:08:01;;;;;;;7.22;1.85;;;;;;;;;;6099066;29;20060;-80
2023/12/22 17:11:05;;;;;;;4.82;1.88;;;;;;;;;;6079514;29;20362;-81
2023/12/22 17:14:07;;;;;;;4.28;1.88;;;;;;;;;;6098317;29;20311;-80
2023/12/22 17:17:10;;;;;;;6.73;2.63;;;;;;;;;;6074640;29;20044;-83
2023/12/22 17:20:13;;;;;;;6.30;2.40;;;;;;;;;;6101504;29;20056;-83
2023/12/22 17:23:15;;;;;;;7.03;2.22;;;;;;;;;;6105440;29;20464;-80
2023/12/22 17:26:18;;;;;;;6.07;2.45;;;;;;;;;;6090725;29;20136;-82
2023/12/22 17:29:21;;;;;;;6.60;2.22;;;;;;;;;;6112727;29;20120;-81
2023/12/22 17:32:23;;;;;;;11.80;4.85;;;;;;;;;;6109281;29;20056;-81
2023/12/22 17:35:25;;;;;;;5.38;3.05;;;;;;;;;;6087806;29;20400;-80
2023/12/22 17:38:27;;;;;;;8.80;2.63;;;;;;;;;;6092936;29;20369;-81
2023/12/22 17:41:30;;;;;;;6.47;2.25;;;;;;;;;;6101945;29;20044;-81
2023/12/22 17:44:33;;;;;;;3.95;1.88;;;;;;;;;;6104785;29;20282;-81
2023/12/22 17:47:35;;;;;;;5.55;2.20;;;;;;;;;;6101094;29;20063;-81
2023/12/22 17:50:40;;;;;;;6.60;2.00;;;;;;;;;;6106807;29;20060;-81
2023/12/22 17:53:43;;;;;;;3.67;1.88;;;;;;;;;;6104618;29;20056;-81
2023/12/22 17:56:46;;;;;;;4.38;1.83;;;;;;;;;;6103825;29;20071;-80
2023/12/22 17:59:48;;;;;;;4.70;1.98;;;;;;;;;;6106473;29;20047;-82
2023/12/22 18:02:50;;;;;;;5.35;2.00;;;;;;;;;;6103539;29;20043;-81
2023/12/22 18:05:52;;;;;;;7.28;2.25;;;;;;;;;;6086221;29;20107;-81
2023/12/22 18:08:54;;;;;;;6.60;2.42;;;;;;;;;;6085700;29;20072;-82
2023/12/22 18:11:57;;;;;;;4.80;2.13;;;;;;;;;;6087424;29;20254;-81
2023/12/22 18:15:00;;;;;;;7.07;1.85;;;;;;;;;;6086816;29;20060;-82
2023/12/22 18:18:02;;;;;;;5.80;2.17;;;;;;;;;;6087290;29;20044;-82
2023/12/22 18:21:06;;;;;;;4.95;1.75;;;;;;;;;;6103138;29;20048;-82
2023/12/22 18:24:08;;;;;;;4.90;1.90;;;;;;;;;;6084828;29;20123;-80
2023/12/22 18:27:11;;;;;;;5.00;1.58;;;;;;;;;;6105902;29;20470;-82
2023/12/22 18:30:14;;;;;;;3.60;1.70;;;;;;;;;;6103430;29;20048;-81
2023/12/22 18:33:21;;;;;;;3.08;1.63;;;;;;;;;;6072779;29;20368;-82
2023/12/22 18:36:23;;;;;;;4.53;1.48;;;;;;;;;;6073681;29;20413;-82
2023/12/22 18:39:25;;;;;;;5.85;1.83;;;;;;;;;;6075183;29;20251;-81
2023/12/22 18:42:29;;;;;;;3.17;1.70;;;;;;;;;;6090643;29;20075;-82
2023/12/22 18:45:33;;;;;;;3.75;1.80;;;;;;;;;;6089107;29;20057;-81
2023/12/22 18:48:36;;;;;;;3.30;1.60;;;;;;;;;;6099033;29;20071;-80
2023/12/22 18:51:37;;;;;;;3.92;1.60;;;;;;;;;;6086572;29;20056;-80
2023/12/22 18:54:39;;;;;;;3.45;1.75;;;;;;;;;;6083664;29;20057;-81
2023/12/22 18:57:43;;;;;;;8.43;3.47;;;;;;;;;;6097661;29;20182;-81
2023/12/22 19:00:46;;;;;;;8.55;2.15;;;;;;;;;;6097665;29;20358;-81
2023/12/22 19:03:49;;;;;;;4.72;2.13;;;;;;;;;;6098931;29;20056;-81
2023/12/22 19:06:52;;;;;;;5.10;2.20;;;;;;;;;;6082692;29;20060;-81
2023/12/22 19:09:56;;;;;;;7.80;2.40;;;;;;;;;;6101444;29;20389;-80
2023/12/22 19:13:00;;;;;;;4.43;1.92;;;;;;;;;;6105690;29;20092;-80
2023/12/22 19:16:02;;;;;;;3.95;2.00;;;;;;;;;;6100752;29;20058;-83